Time;durP1;ratioP1;P1;durP2;ratioP2;P2;SDS_P1;SDS_P2;PMS_P1;PMS_P2;Temp;Humidity;BMP_temperature;BMP_pressure;BME280_temperature;BME280_humidity;BME280_pressure;Samples;Min_cycle;Max_cycle;Signal;HPM_P1;HPM_P2
2021/12/04 00:01:10;;;;;;;28.60;25.58;;;;;;;2.55;100.00;99932.97;5092348;28;20059;-54
2021/12/04 00:03:40;;;;;;;32.47;26.75;;;;;;;2.55;100.00;99922.78;5092789;28;20490;-56
2021/12/04 00:06:11;;;;;;;31.50;26.65;;;;;;;2.53;100.00;99924.38;5093259;28;20021;-55
2021/12/04 00:08:37;;;;;;;31.38;26.92;;;;;;;2.55;100.00;99917.72;5092345;28;20020;-54
2021/12/04 00:11:03;;;;;;;30.00;26.27;;;;;;;2.53;100.00;99914.19;5092713;28;20035;-55
2021/12/04 00:13:29;;;;;;;39.17;27.42;;;;;;;2.53;100.00;99904.91;5092590;28;20035;-54
2021/12/04 00:15:55;;;;;;;33.10;26.92;;;;;;;2.53;100.00;99899.84;5092355;28;20012;-55
2021/12/04 00:18:20;;;;;;;32.55;25.92;;;;;;;2.52;100.00;99893.00;5092689;28;20074;-54
2021/12/04 00:20:45;;;;;;;32.42;26.83;;;;;;;2.54;100.00;99891.38;5092666;28;20024;-55
2021/12/04 00:23:10;;;;;;;30.50;25.98;;;;;;;2.52;100.00;99882.81;5092048;28;20024;-54
2021/12/04 00:25:38;;;;;;;30.27;25.67;;;;;;;2.53;100.00;99883.69;5092591;28;20034;-55
2021/12/04 00:28:03;;;;;;;36.33;26.20;;;;;;;2.54;100.00;99890.53;5092788;28;20032;-55
2021/12/04 00:30:29;;;;;;;28.52;25.23;;;;;;;2.54;100.00;99881.19;5092119;28;20066;-54
2021/12/04 00:32:57;;;;;;;28.75;24.88;;;;;;;2.54;100.00;99881.19;5092580;28;20028;-55
2021/12/04 00:51:15;;;;;;;28.95;24.48;;;;;;;2.58;100.00;99872.06;5092101;28;20070;-55
2021/12/04 00:53:40;;;;;;;27.70;24.08;;;;;;;2.57;100.00;99865.22;5092324;28;20032;-55
2021/12/04 00:56:06;;;;;;;28.13;24.52;;;;;;;2.59;100.00;99868.72;5092418;28;20044;-54
2021/12/04 00:58:31;;;;;;;31.60;24.67;;;;;;;2.57;100.00;99860.13;5091979;28;20020;-55
2021/12/04 01:00:56;;;;;;;27.83;24.67;;;;;;;2.57;100.00;99866.09;5092553;28;20032;-54
2021/12/04 01:03:22;;;;;;;29.65;26.38;;;;;;;2.60;100.00;99873.00;5091855;28;20101;-56
2021/12/04 01:05:47;;;;;;;29.20;25.55;;;;;;;2.59;100.00;99869.56;5095165;28;20039;-55
2021/12/04 01:08:13;;;;;;;33.63;26.55;;;;;;;2.60;100.00;99868.78;5096178;28;20016;-55
2021/12/04 01:10:38;;;;;;;32.40;26.15;;;;;;;2.61;100.00;99870.53;5094990;28;20032;-55
2021/12/04 01:13:10;;;;;;;28.88;25.25;;;;;;;2.60;100.00;99866.22;5096229;28;20082;-55
2021/12/04 01:15:36;;;;;;;28.80;25.58;;;;;;;2.61;100.00;99873.06;5095859;28;20039;-56
2021/12/04 01:18:01;;;;;;;31.10;26.63;;;;;;;2.62;100.00;99879.91;5095306;28;20028;-54
2021/12/04 01:20:26;;;;;;;30.10;25.85;;;;;;;2.62;100.00;99877.34;5095825;28;20077;-56
2021/12/04 01:22:52;;;;;;;30.17;25.27;;;;;;;2.64;100.00;99874.88;5095693;28;20099;-56
2021/12/04 01:25:17;;;;;;;28.85;25.55;;;;;;;2.63;100.00;99879.09;5094918;28;20400;-56
2021/12/04 01:27:45;;;;;;;29.70;24.77;;;;;;;2.66;100.00;99880.03;5095383;28;20511;-55
2021/12/04 01:30:12;;;;;;;30.98;25.83;;;;;;;2.66;100.00;99875.84;5095592;28;20544;-54
2021/12/04 01:32:37;;;;;;;30.92;25.38;;;;;;;2.66;100.00;99860.56;5094828;28;20053;-55
2021/12/04 01:35:03;;;;;;;28.60;24.60;;;;;;;2.68;100.00;99860.63;5095660;28;20462;-55
2021/12/04 01:37:28;;;;;;;31.40;25.17;;;;;;;2.67;100.00;99857.19;5095383;28;20039;-56
2021/12/04 01:39:53;;;;;;;31.90;25.67;;;;;;;2.70;100.00;99856.47;5094926;28;20024;-56
2021/12/04 01:42:20;;;;;;;26.65;23.73;;;;;;;2.70;100.00;99859.00;5095730;28;20017;-55
2021/12/04 01:44:50;;;;;;;29.57;26.37;;;;;;;2.69;100.00;99865.78;5095077;28;20522;-55
2021/12/04 01:47:20;;;;;;;29.45;24.25;;;;;;;2.70;100.00;99865.00;5094705;28;20108;-54
2021/12/04 01:49:48;;;;;;;31.73;25.48;;;;;;;2.72;100.00;99858.28;5095293;28;20494;-55
2021/12/04 01:52:15;;;;;;;28.63;25.52;;;;;;;2.73;100.00;99854.09;5094897;28;20043;-55
2021/12/04 01:54:40;;;;;;;28.10;24.05;;;;;;;2.72;100.00;99849.78;5094582;28;20467;-56
2021/12/04 01:57:05;;;;;;;28.40;24.38;;;;;;;2.75;100.00;99849.91;5095384;28;20035;-56
2021/12/04 01:59:31;;;;;;;31.20;24.55;;;;;;;2.75;100.00;99849.91;5094769;28;20420;-55
2021/12/04 02:01:57;;;;;;;28.95;25.27;;;;;;;2.73;100.00;99851.53;5094634;28;20483;-55
2021/12/04 02:04:23;;;;;;;31.20;23.88;;;;;;;2.75;100.00;99853.34;5095234;28;20125;-55
2021/12/04 02:06:48;;;;;;;30.33;24.58;;;;;;;2.76;100.00;99851.66;5094199;28;20048;-54
2021/12/04 02:09:13;;;;;;;28.58;24.15;;;;;;;2.76;100.00;99844.03;5095582;28;20027;-56
2021/12/04 02:11:38;;;;;;;26.23;23.10;;;;;;;2.77;100.00;99838.13;5094564;28;20024;-55
2021/12/04 02:14:05;;;;;;;25.70;22.67;;;;;;;2.77;100.00;99831.38;5094341;28;20028;-56
2021/12/04 02:16:31;;;;;;;28.73;23.80;;;;;;;2.78;100.00;99829.72;5093924;28;20059;-56
2021/12/04 02:18:56;;;;;;;28.05;23.88;;;;;;;2.77;100.00;99818.66;5094817;28;20384;-55
2021/12/04 02:21:21;;;;;;;27.25;24.33;;;;;;;2.79;100.00;99811.09;5093978;28;20475;-55
2021/12/04 02:23:47;;;;;;;28.35;23.02;;;;;;;2.79;100.00;99795.84;5094432;28;20403;-55
2021/12/04 02:26:13;;;;;;;26.42;22.33;;;;;;;2.79;100.00;99794.16;5094787;28;20024;-55
2021/12/04 02:28:42;;;;;;;25.60;22.02;;;;;;;2.78;100.00;99794.09;5093998;28;20028;-54
2021/12/04 02:31:07;;;;;;;27.02;23.38;;;;;;;2.78;100.00;99789.84;5094456;28;20028;-55
2021/12/04 02:33:32;;;;;;;28.45;22.83;;;;;;;2.79;100.00;99790.75;5094554;28;20097;-55
2021/12/04 02:35:58;;;;;;;28.95;23.15;;;;;;;2.77;100.00;99797.44;5093579;28;20070;-55
2021/12/04 02:38:26;;;;;;;27.95;23.13;;;;;;;2.78;100.00;99799.19;5094592;28;20023;-55
2021/12/04 02:40:54;;;;;;;27.73;22.90;;;;;;;2.78;100.00;99784.75;5094254;28;20027;-55
2021/12/04 02:43:20;;;;;;;27.00;22.48;;;;;;;2.79;100.00;99778.03;5093552;28;20463;-55
2021/12/04 02:45:45;;;;;;;29.45;22.48;;;;;;;2.80;100.00;99774.66;5094162;28;20020;-54
2021/12/04 02:48:11;;;;;;;30.67;22.23;;;;;;;2.82;100.00;99769.66;5094151;28;20405;-56
2021/12/04 02:50:37;;;;;;;28.00;22.00;;;;;;;2.81;100.00;99773.84;5093461;28;20081;-55
2021/12/04 02:53:02;;;;;;;31.90;22.88;;;;;;;2.82;100.00;99769.66;5094418;28;20028;-54
2021/12/04 02:55:27;;;;;;;29.85;22.90;;;;;;;2.80;100.00;99767.00;5093945;28;20036;-54
2021/12/04 02:57:53;;;;;;;28.40;22.25;;;;;;;2.82;100.00;99775.59;5093585;28;20410;-55
2021/12/04 03:00:22;;;;;;;31.65;22.83;;;;;;;2.82;100.00;99775.59;5094213;28;20024;-55
2021/12/04 03:02:47;;;;;;;30.25;22.55;;;;;;;2.83;100.00;99772.25;5093378;28;20395;-56
2021/12/04 03:05:14;;;;;;;30.65;23.10;;;;;;;2.84;100.00;99774.00;5093336;28;20464;-55
2021/12/04 03:07:39;;;;;;;29.08;22.13;;;;;;;2.82;100.00;99765.41;5093783;28;20028;-55
2021/12/04 03:10:07;;;;;;;28.60;22.20;;;;;;;2.83;100.00;99771.38;5093150;28;20055;-55
2021/12/04 03:12:33;;;;;;;;;;;;;;;2.92;100.00;99772.66;5094170;28;20016;-54
2021/12/04 03:14:58;;;;;;;26.88;20.95;;;;;;;2.85;100.00;99767.22;5093677;28;19937;-55
2021/12/04 03:17:25;;;;;;;26.98;20.83;;;;;;;2.85;100.00;99755.34;5092800;28;20052;-55
2021/12/04 03:19:52;;;;;;;27.63;22.23;;;;;;;2.87;100.00;99755.44;5093797;28;20020;-57
2021/12/04 03:22:19;;;;;;;31.73;22.42;;;;;;;2.84;100.00;99751.09;5093558;28;20743;-56
2021/12/04 03:24:45;;;;;;;26.77;21.97;;;;;;;2.85;100.00;99745.19;5092526;28;20086;-55
2021/12/04 03:27:12;;;;;;;30.10;22.13;;;;;;;2.86;100.00;99746.06;5093414;28;20091;-55
2021/12/04 03:29:42;;;;;;;27.17;21.48;;;;;;;2.86;100.00;99740.97;5093259;28;20122;-55
2021/12/04 03:32:47;;;;;;;28.88;21.60;;;;;;;2.84;100.00;99738.38;5092618;28;20038;-55
2021/12/04 03:41:09;;;;;;;24.23;19.52;;;;;;;2.86;100.00;99741.84;5093302;28;20039;-56
2021/12/04 03:43:29;;;;;;;22.60;18.90;;;;;;;2.86;100.00;99736.75;5089071;28;20032;-53
2021/12/04 03:45:59;;;;;;;23.77;19.73;;;;;;;2.84;100.00;99728.19;5092512;28;20059;-55
2021/12/04 03:48:49;;;;;;;22.40;19.08;;;;;;;2.86;100.00;99736.75;5093187;28;20043;-55
2021/12/04 03:51:12;;;;;;;21.05;18.52;;;;;;;2.85;100.00;99735.00;5092816;28;20043;-55
2021/12/04 03:53:38;;;;;;;21.35;19.05;;;;;;;2.84;100.00;99720.56;5092502;28;20023;-55
2021/12/04 03:56:04;;;;;;;22.13;18.75;;;;;;;2.84;100.00;99720.56;5093316;28;20027;-55
2021/12/04 03:58:29;;;;;;;24.33;18.67;;;;;;;2.86;100.00;99711.31;5092666;28;20019;-54
2021/12/04 04:00:55;;;;;;;19.92;16.88;;;;;;;2.86;100.00;99718.09;5092383;28;20028;-56
2021/12/04 04:03:20;;;;;;;20.42;16.75;;;;;;;2.87;100.00;99722.38;5093042;28;20031;-55
2021/12/04 04:05:46;;;;;;;18.42;15.55;;;;;;;2.85;100.00;99721.41;5092739;28;20032;-55
2021/12/04 04:08:12;;;;;;;20.95;15.23;;;;;;;2.86;100.00;99725.72;5092631;28;20122;-55
2021/12/04 04:10:38;;;;;;;16.45;14.00;;;;;;;2.86;100.00;99721.47;5092641;28;20467;-55
2021/12/04 04:13:07;;;;;;;17.67;15.02;;;;;;;2.85;100.00;99716.34;5092824;28;20039;-56
2021/12/04 04:15:33;;;;;;;17.77;15.02;;;;;;;2.86;100.00;99711.31;5092387;28;20028;-55
2021/12/04 04:17:58;;;;;;;17.30;14.48;;;;;;;2.86;100.00;99701.13;5092883;28;20095;-56
2021/12/04 04:20:23;;;;;;;16.27;13.98;;;;;;;2.86;100.00;99707.91;5091980;28;20035;-56
2021/12/04 04:22:49;;;;;;;15.40;13.75;;;;;;;2.87;100.00;99692.69;5092899;28;20107;-55
2021/12/04 04:25:16;;;;;;;17.30;13.73;;;;;;;2.87;100.00;99692.69;5092675;28;20055;-55
2021/12/04 04:27:42;;;;;;;16.15;13.32;;;;;;;2.86;100.00;99688.41;5091964;28;20032;-55
2021/12/04 04:30:13;;;;;;;15.68;13.35;;;;;;;2.84;100.00;99686.59;5092844;28;20090;-55
2021/12/04 04:32:40;;;;;;;14.68;12.70;;;;;;;2.84;100.00;99695.13;5092427;28;20035;-55
2021/12/04 04:35:26;;;;;;;14.02;12.57;;;;;;;2.86;100.00;99697.72;5092193;28;20471;-55
2021/12/04 04:57:29;;;;;;;14.27;12.77;;;;;;;2.86;100.00;99701.13;5095206;28;20034;-56
2021/12/04 04:57:48;;;;;;;14.15;11.27;;;;;;;2.90;100.00;99692.81;5095908;28;20070;-55
2021/12/04 05:10:19;;;;;;;12.45;11.15;;;;;;;2.89;100.00;99688.53;5095466;28;20036;-56
2021/12/04 05:11:11;;;;;;;11.77;10.55;;;;;;;2.89;100.00;99670.72;5095510;28;20043;-56
2021/12/04 05:13:38;;;;;;;13.48;10.43;;;;;;;2.89;100.00;99680.03;5095858;28;20027;-56
2021/12/04 05:16:17;;;;;;;12.57;10.30;;;;;;;2.89;100.00;99675.81;5095905;28;20036;-56
2021/12/04 05:18:53;;;;;;;12.63;9.82;;;;;;;2.89;100.00;99678.38;5095478;28;20042;-54
2021/12/04 05:21:18;;;;;;;10.50;9.18;;;;;;;2.89;100.00;99660.56;5096025;28;20035;-55
2021/12/04 05:23:50;;;;;;;10.60;9.25;;;;;;;2.89;100.00;99655.47;5094899;28;20044;-56
2021/12/04 05:26:20;;;;;;;10.00;9.00;;;;;;;2.90;100.00;99661.41;5095809;28;20024;-56
2021/12/04 05:28:46;;;;;;;11.00;9.35;;;;;;;2.91;100.00;99664.00;5095586;28;20055;-56
2021/12/04 05:31:12;;;;;;;10.68;9.57;;;;;;;2.92;100.00;99670.84;5094961;28;20553;-55
2021/12/04 05:33:39;;;;;;;11.00;9.55;;;;;;;2.93;100.00;99659.88;5095570;28;20481;-56
2021/12/04 05:36:04;;;;;;;9.88;8.88;;;;;;;2.94;100.00;99656.53;5095499;28;20024;-56
2021/12/04 05:38:29;;;;;;;11.52;9.50;;;;;;;2.96;100.00;99657.44;5095007;28;20043;-55
2021/12/04 05:40:55;;;;;;;10.70;9.10;;;;;;;2.95;100.00;99665.88;5095475;28;20467;-56
2021/12/04 05:43:22;;;;;;;10.95;9.07;;;;;;;2.95;100.00;99660.78;5095351;28;20020;-55
2021/12/04 05:45:57;;;;;;;10.32;8.88;;;;;;;2.99;100.00;99666.00;5095236;28;20051;-55
2021/12/04 05:48:37;;;;;;;10.85;8.98;;;;;;;2.99;100.00;99663.47;5095578;28;20076;-56
2021/12/04 05:51:30;;;;;;;9.45;8.45;;;;;;;2.99;100.00;99655.84;5095308;28;20107;-55
2021/12/04 05:56:23;;;;;;;10.82;9.20;;;;;;;3.03;100.00;99652.59;5095432;28;20119;-56
2021/12/04 05:58:50;;;;;;;12.13;8.75;;;;;;;3.04;100.00;99657.75;5094509;28;20157;-55
2021/12/04 06:01:17;;;;;;;11.05;8.82;;;;;;;3.05;100.00;99656.09;5095332;28;20407;-56
2021/12/04 06:03:42;;;;;;;11.65;9.02;;;;;;;3.06;100.00;99653.59;5094994;28;20511;-56
2021/12/04 06:06:08;;;;;;;10.75;9.05;;;;;;;3.06;100.00;99650.16;5094293;28;20054;-55
2021/12/04 06:08:33;;;;;;;11.05;9.30;;;;;;;3.06;100.00;99658.69;5094915;28;20031;-56
2021/12/04 06:10:59;;;;;;;12.70;9.48;;;;;;;3.06;100.00;99648.50;5094961;28;20097;-54
2021/12/04 06:13:25;;;;;;;11.07;9.15;;;;;;;3.07;100.00;99651.91;5094144;28;20085;-56
2021/12/04 06:15:51;;;;;;;11.32;9.63;;;;;;;3.08;100.00;99643.47;5094733;28;20104;-55
2021/12/04 06:18:16;;;;;;;12.55;9.70;;;;;;;3.07;100.00;99639.19;5094545;28;20032;-55
2021/12/04 06:23:27;;;;;;;12.23;9.88;;;;;;;3.10;100.00;99644.41;5094622;28;20094;-56
2021/12/04 06:25:53;;;;;;;13.20;10.60;;;;;;;3.09;100.00;99643.53;5094507;28;20414;-56
2021/12/04 06:28:18;;;;;;;12.48;10.13;;;;;;;3.10;100.00;99639.31;5094135;28;20050;-56
2021/12/04 06:30:44;;;;;;;11.90;9.80;;;;;;;3.10;100.00;99634.22;5094301;28;20032;-55
2021/12/04 06:33:12;;;;;;;11.55;9.45;;;;;;;3.10;100.00;99639.31;5094208;28;20027;-56
2021/12/04 06:35:40;;;;;;;13.52;10.57;;;;;;;3.10;100.00;99642.72;5093614;28;20024;-56
2021/12/04 06:38:09;;;;;;;13.60;9.77;;;;;;;3.13;100.00;99657.25;5094677;28;20104;-56
2021/12/04 06:40:35;;;;;;;14.85;10.30;;;;;;;3.11;100.00;99647.00;5093900;28;20430;-54
2021/12/04 06:43:02;;;;;;;12.20;9.90;;;;;;;3.12;100.00;99647.88;5093756;28;20433;-55
2021/12/04 06:45:30;;;;;;;12.88;9.48;;;;;;;3.12;100.00;99651.31;5094125;28;20527;-56
2021/12/04 06:48:05;;;;;;;12.65;9.93;;;;;;;3.13;100.00;99644.53;5093440;28;20024;-56
2021/12/04 06:50:39;;;;;;;14.52;9.93;;;;;;;3.14;100.00;99643.72;5094204;28;20085;-56
2021/12/04 06:53:23;;;;;;;12.20;9.55;;;;;;;3.14;100.00;99643.72;5094113;28;20457;-55
2021/12/04 06:55:53;;;;;;;12.70;9.57;;;;;;;3.13;100.00;99644.53;5093483;28;20024;-56
2021/12/04 06:58:18;;;;;;;12.55;9.63;;;;;;;3.13;100.00;99645.38;5093999;28;20042;-56
2021/12/04 07:00:44;;;;;;;12.90;10.02;;;;;;;3.15;100.00;99644.59;5093768;28;20372;-56
2021/12/04 07:03:10;;;;;;;12.63;9.68;;;;;;;3.12;100.00;99647.88;5093047;28;20027;-56
2021/12/04 07:05:35;;;;;;;12.10;9.80;;;;;;;3.12;100.00;99647.88;5093867;28;20036;-55
2021/12/04 07:08:00;;;;;;;11.20;9.55;;;;;;;3.11;100.00;99646.13;5093933;28;20028;-55
2021/12/04 07:10:26;;;;;;;12.43;10.10;;;;;;;3.12;100.00;99647.88;5093418;28;20051;-55
2021/12/04 07:12:51;;;;;;;13.77;11.05;;;;;;;3.10;100.00;99646.97;5093704;28;20035;-55
2021/12/04 07:15:17;;;;;;;16.13;11.45;;;;;;;3.11;100.00;99648.66;5093742;28;20077;-54
2021/12/04 07:17:42;;;;;;;14.23;10.88;;;;;;;3.12;100.00;99647.88;5093230;28;20443;-55
2021/12/04 07:20:09;;;;;;;15.43;11.80;;;;;;;3.10;100.00;99645.28;5093762;28;20047;-54
2021/12/04 07:22:35;;;;;;;15.43;11.50;;;;;;;3.11;100.00;99651.22;5093087;28;20028;-55
2021/12/04 07:25:00;;;;;;;16.35;12.18;;;;;;;3.11;100.00;99646.13;5092889;28;20392;-56
2021/12/04 07:27:28;;;;;;;15.93;11.50;;;;;;;3.12;100.00;99645.31;5093314;28;20165;-55
2021/12/04 07:29:54;;;;;;;16.50;12.15;;;;;;;3.11;100.00;99636.84;5093434;28;20028;-56
2021/12/04 07:32:19;;;;;;;17.63;13.13;;;;;;;3.13;100.00;99635.19;5092853;28;20077;-55
2021/12/04 07:34:44;;;;;;;18.10;13.55;;;;;;;3.15;100.00;99642.03;5093262;28;20060;-56
2021/12/04 07:37:10;;;;;;;18.15;12.63;;;;;;;3.13;100.00;99635.19;5092754;28;20020;-56
2021/12/04 07:39:35;;;;;;;18.70;13.73;;;;;;;3.15;100.00;99642.03;5092980;28;20035;-56
2021/12/04 07:42:00;;;;;;;18.50;13.77;;;;;;;3.16;100.00;99639.53;5093182;28;20085;-55
2021/12/04 07:44:26;;;;;;;17.10;12.68;;;;;;;3.17;100.00;99641.28;5092407;28;20024;-56
2021/12/04 07:46:51;;;;;;;17.77;12.20;;;;;;;3.18;100.00;99637.09;5093014;28;20081;-56
2021/12/04 07:49:16;;;;;;;19.75;12.55;;;;;;;3.19;100.00;99634.59;5093026;28;20059;-55
2021/12/04 07:51:43;;;;;;;16.98;12.65;;;;;;;3.21;100.00;99627.00;5092056;28;20032;-55
2021/12/04 07:54:09;;;;;;;15.38;12.27;;;;;;;3.19;100.00;99626.97;5093023;28;20031;-56
2021/12/04 07:56:34;;;;;;;19.10;12.63;;;;;;;3.21;100.00;99627.88;5092550;28;20029;-56
2021/12/04 07:59:00;;;;;;;17.67;13.50;;;;;;;3.21;100.00;99622.78;5092335;28;20024;-55
2021/12/04 08:01:25;;;;;;;17.50;12.73;;;;;;;3.23;100.00;99625.41;5093089;28;20024;-54
2021/12/04 08:03:50;;;;;;;15.77;12.25;;;;;;;3.23;100.00;99615.22;5092862;28;20020;-56
2021/12/04 08:06:16;;;;;;;14.95;11.75;;;;;;;3.24;100.00;99612.72;5092272;28;20115;-55
2021/12/04 08:08:43;;;;;;;17.17;12.65;;;;;;;3.25;100.00;99623.78;5092810;28;20035;-55
2021/12/04 08:11:08;;;;;;;14.55;11.98;;;;;;;3.28;100.00;99624.75;5092473;28;20062;-54
2021/12/04 08:13:33;;;;;;;15.93;12.35;;;;;;;3.29;100.00;99617.97;5091918;28;20016;-55
2021/12/04 08:15:58;;;;;;;15.45;12.45;;;;;;;3.32;100.00;99622.31;5096636;28;20016;-55
2021/12/04 08:18:24;;;;;;;15.25;11.73;;;;;;;3.32;100.00;99615.56;5096584;28;20024;-55
2021/12/04 08:20:50;;;;;;;14.23;11.82;;;;;;;3.33;100.00;99608.78;5096438;28;20073;-55
2021/12/04 08:23:16;;;;;;;16.27;12.13;;;;;;;3.35;100.00;99604.63;5096953;28;20063;-56
2021/12/04 08:25:41;;;;;;;14.68;11.55;;;;;;;3.36;100.00;99598.75;5096511;28;20028;-54
2021/12/04 08:28:07;;;;;;;15.93;11.60;;;;;;;3.37;100.00;99598.78;5096404;28;20398;-56
2021/12/04 08:30:36;;;;;;;14.10;12.00;;;;;;;3.38;100.00;99584.38;5096820;28;20028;-55
2021/12/04 08:33:01;;;;;;;14.27;11.52;;;;;;;3.38;100.00;99586.91;5096665;28;20141;-55
2021/12/04 08:35:31;;;;;;;15.10;12.00;;;;;;;3.39;100.00;99576.78;5096038;28;20386;-51
2021/12/04 08:37:58;;;;;;;14.88;11.70;;;;;;;3.42;100.00;99573.47;5096552;28;20028;-55
2021/12/04 08:40:26;;;;;;;13.75;11.75;;;;;;;3.40;100.00;99578.53;5096296;28;20024;-55
2021/12/04 08:42:51;;;;;;;15.50;11.65;;;;;;;3.42;100.00;99565.84;5096429;28;20035;-55
2021/12/04 08:45:17;;;;;;;17.45;11.90;;;;;;;3.41;100.00;99579.41;5096540;28;20032;-53
2021/12/04 08:47:42;;;;;;;15.15;11.55;;;;;;;3.41;100.00;99559.03;5095580;28;20031;-55
2021/12/04 08:50:12;;;;;;;18.50;13.43;;;;;;;3.39;100.00;99558.09;5096540;28;20028;-55
2021/12/04 08:52:41;;;;;;;17.35;13.27;;;;;;;3.40;100.00;99557.28;5095904;28;20044;-55
2021/12/04 08:55:07;;;;;;;18.80;12.95;;;;;;;3.41;100.00;99553.94;5095750;28;20103;-52
2021/12/04 08:57:33;;;;;;;18.50;14.15;;;;;;;3.43;100.00;99547.19;5095923;28;20024;-55
2021/12/04 08:59:58;;;;;;;18.15;13.82;;;;;;;3.44;100.00;99548.94;5096170;28;20023;-56
2021/12/04 09:02:24;;;;;;;16.75;14.05;;;;;;;3.47;100.00;99543.94;5095538;28;20020;-55
2021/12/04 09:04:50;;;;;;;18.23;13.75;;;;;;;3.50;100.00;99554.28;5096169;28;20016;-52
2021/12/04 09:07:18;;;;;;;18.88;14.13;;;;;;;3.54;100.00;99563.75;5096014;28;20032;-54
2021/12/04 09:09:44;;;;;;;17.23;13.15;;;;;;;3.55;100.00;99568.06;5095291;28;20097;-54
2021/12/04 09:12:11;;;;;;;17.55;13.45;;;;;;;3.57;100.00;99568.97;5096220;28;20471;-53
2021/12/04 09:14:38;;;;;;;16.45;13.00;;;;;;;3.60;100.00;99566.53;5095635;28;20016;-54
2021/12/04 09:17:06;;;;;;;15.97;13.07;;;;;;;3.58;100.00;99568.16;5095550;28;20073;-54
2021/12/04 09:19:31;;;;;;;;;;;;;;;3.69;100.00;99567.69;5096230;28;20274;-54
2021/12/04 09:21:57;;;;;;;14.90;12.70;;;;;;;3.61;100.00;99563.16;5095335;28;20302;-54
2021/12/04 09:24:27;;;;;;;17.15;12.70;;;;;;;3.62;100.00;99558.94;5095046;28;20105;-53
2021/12/04 09:26:59;;;;;;;16.80;13.60;;;;;;;3.63;100.00;99546.25;5095209;28;20034;-47
2021/12/04 09:29:43;;;;;;;15.50;13.43;;;;;;;3.66;100.00;99549.75;5095337;28;20356;-54
2021/12/04 09:32:39;;;;;;;13.75;11.60;;;;;;;3.67;100.00;99552.34;5095517;28;20103;-53
2021/12/04 10:04:55;;;;;;;16.83;10.98;;;;;;;3.88;100.00;99514.00;5094995;28;20024;-54
2021/12/04 10:13:19;;;;;;;12.93;9.55;;;;;;;3.83;100.00;99517.22;5094564;28;20070;-54
2021/12/04 10:21:15;;;;;;;;;;;;;;;3.89;100.00;99518.28;5094784;28;20524;-54
2021/12/04 10:34:46;;;;;;;13.50;11.73;;;;;;;3.83;100.00;99479.84;5093940;28;19981;-55
2021/12/04 10:37:18;;;;;;;14.98;11.95;;;;;;;3.82;100.00;99473.00;5093324;28;20388;-54
2021/12/04 10:39:44;;;;;;;16.63;13.13;;;;;;;3.82;100.00;99469.59;5094100;28;20394;-54
2021/12/04 10:42:20;;;;;;;20.60;16.55;;;;;;;3.82;100.00;99465.34;5093852;28;20471;-54
2021/12/04 10:44:51;;;;;;;21.55;16.23;;;;;;;3.84;100.00;99463.75;5093987;28;20463;-55
2021/12/04 10:47:23;;;;;;;20.67;16.13;;;;;;;3.85;100.00;99462.94;5093804;28;20031;-53
2021/12/04 10:52:57;;;;;;;17.70;13.57;;;;;;;3.85;100.00;99455.28;5051732;28;20035;-55
2021/12/04 10:58:50;;;;;;;19.02;14.98;;;;;;;3.90;100.00;99448.66;5094174;28;20032;-57
2021/12/04 11:04:18;;;;;;;18.55;14.73;;;;;;;3.98;100.00;99432.75;5094033;28;20031;-54
2021/12/04 11:40:00;;;;;;;18.52;15.68;;;;;;;4.35;100.00;99395.69;5093253;28;20028;-54
2021/12/04 11:42:40;;;;;;;18.33;15.75;;;;;;;4.37;100.00;99388.97;5093002;28;20035;-55
2021/12/04 11:45:17;;;;;;;20.67;14.15;;;;;;;4.41;100.00;99383.97;5092647;28;20391;-54
2021/12/04 11:47:49;;;;;;;16.55;14.75;;;;;;;4.44;100.00;99380.66;5093071;28;20052;-55
2021/12/04 11:50:22;;;;;;;15.25;13.63;;;;;;;4.45;100.00;99374.75;5093138;28;20035;-54
2021/12/04 11:52:51;;;;;;;15.48;13.05;;;;;;;4.45;100.00;99372.19;5093054;28;20028;-54
2021/12/04 11:55:19;;;;;;;16.17;13.50;;;;;;;4.47;100.00;99368.00;5093063;28;20099;-54
2021/12/04 11:57:45;;;;;;;15.02;13.25;;;;;;;4.46;100.00;99366.28;5092495;28;20455;-54
2021/12/04 12:00:26;;;;;;;15.90;13.30;;;;;;;4.47;100.00;99360.34;5093110;28;20476;-54
2021/12/04 12:03:06;;;;;;;15.55;13.27;;;;;;;4.47;100.00;99362.91;5092965;28;20125;-51
2021/12/04 12:05:41;;;;;;;17.75;14.05;;;;;;;4.46;100.00;99353.53;5092738;28;20020;-54
2021/12/04 12:08:06;;;;;;;16.08;12.95;;;;;;;4.48;100.00;99357.00;5093221;28;20023;-54
2021/12/04 12:10:34;;;;;;;15.93;13.73;;;;;;;4.47;100.00;99355.25;5092494;28;20028;-54
2021/12/04 12:13:06;;;;;;;20.48;14.82;;;;;;;4.49;100.00;99356.16;5092387;28;20032;-54
2021/12/04 12:15:35;;;;;;;16.10;13.27;;;;;;;4.48;100.00;99344.25;5092875;28;20020;-54
2021/12/04 12:18:17;;;;;;;15.98;12.95;;;;;;;4.48;100.00;99349.34;5092760;28;20471;-53
2021/12/04 12:20:49;;;;;;;15.57;12.43;;;;;;;4.43;100.00;99348.34;5092267;28;20028;-55
2021/12/04 12:23:18;;;;;;;18.83;13.40;;;;;;;4.43;100.00;99340.69;5092384;28;20452;-53
2021/12/04 12:37:18;;;;;;;18.92;14.57;;;;;;;4.38;100.00;99339.69;5068524;28;20041;-54
2021/12/04 12:40:14;;;;;;;16.75;14.20;;;;;;;4.40;100.00;99343.13;5091950;28;20557;-55
2021/12/04 12:42:42;;;;;;;19.95;14.82;;;;;;;4.36;100.00;99341.31;5075832;28;20060;-54
2021/12/04 12:45:27;;;;;;;20.20;15.85;;;;;;;4.35;100.00;99345.56;5092400;28;20024;-55
2021/12/04 12:48:03;;;;;;;21.27;15.55;;;;;;;4.34;100.00;99348.91;5091971;28;20032;-55
2021/12/04 12:50:34;;;;;;;20.48;15.02;;;;;;;4.29;100.00;99346.22;5092297;28;20024;-53
2021/12/04 12:53:27;;;;;;;21.25;15.68;;;;;;;4.31;100.00;99359.00;5092543;28;20028;-54
2021/12/04 12:56:06;;;;;;;21.88;15.55;;;;;;;4.28;100.00;99351.28;5081421;28;20040;-54
2021/12/04 12:58:53;;;;;;;20.00;15.77;;;;;;;4.26;100.00;99350.34;5091985;28;20026;-54
2021/12/04 13:12:52;;;;;;;28.13;21.45;;;;;;;4.13;100.00;99333.81;5095568;28;20070;-53
2021/12/04 13:15:35;;;;;;;28.50;21.40;;;;;;;4.14;100.00;99338.09;5095349;28;20024;-54
2021/12/04 13:18:12;;;;;;;27.52;21.05;;;;;;;4.16;100.00;99330.47;5096039;28;20057;-53
2021/12/04 13:20:37;;;;;;;30.03;22.87;;;;;;;4.15;100.00;99326.22;5095471;28;20468;-54
2021/12/04 13:23:17;;;;;;;35.38;23.75;;;;;;;4.18;100.00;99331.41;5095049;28;20282;-55
2021/12/04 13:25:50;;;;;;;32.53;23.77;;;;;;;4.17;100.00;99335.66;5095450;28;20472;-54
2021/12/04 13:28:21;;;;;;;32.50;23.17;;;;;;;4.18;100.00;99331.41;5095646;28;20043;-54
2021/12/04 13:30:47;;;;;;;33.58;24.90;;;;;;;4.17;100.00;99328.00;5094958;28;20063;-53
2021/12/04 13:33:13;;;;;;;31.65;23.83;;;;;;;4.18;100.00;99329.72;5095538;28;20047;-48
2021/12/04 13:35:38;;;;;;;33.53;24.27;;;;;;;4.19;100.00;99318.69;5095398;28;20063;-51
2021/12/04 13:38:05;;;;;;;38.10;26.90;;;;;;;4.20;100.00;99323.00;5095180;28;20050;-51
2021/12/04 13:40:30;;;;;;;38.35;26.77;;;;;;;4.21;100.00;99321.28;5095008;28;20535;-53
2021/12/04 13:42:56;;;;;;;36.83;26.60;;;;;;;4.21;100.00;99319.63;5095043;28;20098;-50
2021/12/04 13:45:21;;;;;;;37.28;26.73;;;;;;;4.22;100.00;99323.91;5095458;28;20024;-54
2021/12/04 13:47:52;;;;;;;37.92;27.15;;;;;;;4.22;100.00;99321.38;5094901;28;20601;-51
2021/12/04 13:53:02;;;;;;;34.35;25.65;;;;;;;4.21;100.00;99327.28;5095099;28;20032;-54
2021/12/04 13:55:30;;;;;;;39.40;25.80;;;;;;;4.22;100.00;99328.13;5095166;28;20049;-54
2021/12/04 13:57:57;;;;;;;38.92;28.05;;;;;;;4.22;100.00;99329.00;5094672;28;20020;-54
2021/12/04 14:00:23;;;;;;;33.63;25.45;;;;;;;4.21;100.00;99327.28;5095242;28;20031;-53
2021/12/04 14:02:49;;;;;;;35.80;25.55;;;;;;;4.22;100.00;99325.56;5094738;28;20024;-54
2021/12/04 14:05:21;;;;;;;34.65;25.15;;;;;;;4.23;100.00;99319.66;5094355;28;20378;-53
2021/12/04 14:07:58;;;;;;;65.07;46.75;;;;;;;4.23;100.00;99325.63;5094888;28;20016;-54
2021/12/04 14:10:53;;;;;;;34.95;26.17;;;;;;;4.27;100.00;99321.47;5094705;28;20027;-54
2021/12/04 14:13:23;;;;;;;45.97;33.75;;;;;;;4.23;100.00;99325.63;5076767;28;20047;-54
2021/12/04 14:15:52;;;;;;;41.30;28.88;;;;;;;4.25;100.00;99324.00;5094508;28;20032;-52
2021/12/04 14:18:19;;;;;;;37.17;26.98;;;;;;;4.26;100.00;99328.28;5094318;28;20020;-54